createdAt,value
2018-07-11T00:01:12.635Z,71.40
2018-07-11T00:03:48.935Z,71.70
2018-07-11T00:06:21.577Z,71.00
2018-07-11T00:08:53.897Z,71.20
2018-07-11T00:11:26.284Z,70.90
2018-07-11T00:13:58.756Z,71.20
2018-07-11T00:16:30.555Z,70.30
2018-07-11T00:19:03.115Z,70.60
2018-07-11T00:21:35.734Z,71.30
2018-07-11T00:24:08.135Z,71.60
2018-07-11T00:26:40.375Z,71.60
2018-07-11T00:29:12.595Z,71.40
2018-07-11T00:31:45.415Z,71.60
2018-07-11T00:34:17.855Z,72.30
2018-07-11T00:36:49.817Z,72.90
2018-07-11T00:39:22.375Z,71.90
2018-07-11T00:41:54.456Z,72.20
2018-07-11T00:44:26.455Z,72.10
2018-07-11T00:46:58.575Z,72.90
2018-07-11T00:49:30.396Z,72.60
2018-07-11T00:52:02.976Z,72.30
2018-07-11T00:54:34.875Z,72.00
2018-07-11T00:57:07.076Z,72.00
2018-07-11T00:59:43.135Z,72.60
2018-07-11T01:02:14.955Z,73.30
2018-07-11T01:04:47.655Z,72.30
2018-07-11T01:07:19.196Z,72.70
2018-07-11T01:09:51.836Z,73.90
2018-07-11T01:12:23.796Z,73.50
2018-07-11T01:14:55.815Z,74.70
2018-07-11T01:17:33.116Z,74.50
2018-07-11T01:20:06.036Z,74.40
2018-07-11T01:22:37.855Z,74.00
2018-07-11T01:25:10.236Z,74.10
2018-07-11T01:27:42.375Z,72.40
2018-07-11T01:30:13.715Z,65.70
2018-07-11T01:32:45.996Z,66.10
2018-07-11T01:35:17.916Z,65.40
2018-07-11T01:37:48.756Z,66.70
2018-07-11T01:40:20.535Z,67.70
2018-07-11T01:42:52.315Z,68.30
2018-07-11T01:45:24.935Z,70.20
2018-07-11T01:47:56.856Z,69.60
2018-07-11T01:50:29.275Z,71.00
2018-07-11T01:53:01.836Z,71.00
2018-07-11T01:55:34.435Z,71.00
2018-07-11T01:58:06.915Z,72.00
2018-07-11T02:00:39.415Z,72.00
2018-07-11T02:03:12.675Z,71.70
2018-07-11T02:05:44.955Z,72.10
2018-07-11T02:08:16.539Z,71.90
2018-07-11T02:10:49.015Z,72.20
2018-07-11T02:13:20.855Z,72.10
2018-07-11T02:15:53.739Z,71.60
2018-07-11T02:18:28.715Z,71.40
2018-07-11T02:21:01.896Z,72.00
2018-07-11T02:23:38.575Z,71.50
2018-07-11T02:26:11.395Z,70.90
2018-07-11T02:28:43.015Z,70.50
2018-07-11T02:31:15.536Z,70.50
2018-07-11T02:33:46.978Z,71.00
2018-07-11T02:36:19.336Z,71.40
2018-07-11T02:38:52.266Z,70.60
2018-07-11T02:41:24.517Z,71.00
2018-07-11T02:43:56.696Z,70.50
2018-07-11T02:46:33.097Z,68.90
2018-07-11T02:49:05.936Z,69.30
2018-07-11T02:51:38.076Z,69.80
2018-07-11T02:54:09.616Z,70.90
2018-07-11T02:56:41.776Z,70.50
2018-07-11T02:59:14.715Z,71.40
2018-07-11T03:01:47.055Z,72.10
2018-07-11T03:04:18.775Z,72.20
2018-07-11T03:06:50.836Z,72.10
2018-07-11T03:09:22.697Z,69.40
2018-07-11T03:11:55.176Z,69.60
2018-07-11T03:14:27.255Z,70.80
2018-07-11T03:16:59.216Z,71.70
2018-07-11T03:19:32.655Z,72.00
2018-07-11T03:22:03.955Z,71.00
2018-07-11T03:24:36.935Z,70.60
2018-07-11T03:27:09.795Z,71.40
2018-07-11T03:29:41.475Z,70.90
2018-07-11T03:32:13.895Z,71.60
2018-07-11T03:34:46.375Z,70.90
2018-07-11T03:37:18.095Z,71.00
2018-07-11T03:39:50.375Z,71.30
2018-07-11T03:42:22.395Z,71.00
2018-07-11T03:44:54.895Z,70.50
2018-07-11T03:47:26.679Z,70.80
2018-07-11T03:49:58.595Z,70.70
2018-07-11T03:52:31.355Z,70.80
2018-07-11T03:55:03.175Z,72.20
2018-07-11T03:57:35.055Z,70.50
2018-07-11T04:00:06.855Z,70.00
2018-07-11T04:02:39.195Z,70.40
2018-07-11T04:05:11.695Z,70.60
2018-07-11T04:07:42.595Z,69.80
2018-07-11T04:10:14.775Z,69.80
2018-07-11T04:12:46.536Z,70.20
2018-07-11T04:15:19.415Z,71.40
2018-07-11T04:17:49.435Z,70.90
2018-07-11T04:20:20.996Z,70.70
2018-07-11T04:22:52.837Z,70.50
2018-07-11T04:25:25.256Z,71.00
2018-07-11T04:27:57.275Z,70.80
2018-07-11T04:30:30.535Z,71.30
2018-07-11T04:33:02.216Z,70.70
2018-07-11T04:35:34.855Z,70.10
2018-07-11T04:38:07.075Z,69.70
2018-07-11T04:40:39.015Z,70.10
2018-07-11T04:43:11.715Z,68.80
2018-07-11T04:45:43.815Z,66.90
2018-07-11T04:48:15.595Z,63.90
2018-07-11T04:50:49.137Z,64.00
2018-07-11T04:53:26.875Z,63.40
2018-07-11T04:56:04.456Z,62.70
2018-07-11T04:58:36.055Z,62.00
2018-07-11T05:01:08.615Z,63.00
2018-07-11T05:03:40.836Z,63.00
2018-07-11T05:06:13.096Z,62.10
2018-07-11T05:08:44.576Z,61.80
2018-07-11T05:11:16.684Z,62.50
2018-07-11T05:13:49.215Z,63.00
2018-07-11T05:18:52.777Z,61.90
2018-07-11T05:21:24.615Z,61.00
2018-07-11T05:23:57.115Z,59.80
2018-07-11T05:26:29.135Z,59.80
2018-07-11T05:29:01.537Z,59.60
2018-07-11T05:31:33.737Z,60.00
2018-07-11T05:34:05.255Z,59.70
2018-07-11T05:36:37.356Z,59.40
2018-07-11T05:39:09.876Z,58.10
2018-07-11T05:41:42.096Z,57.40
2018-07-11T05:44:14.856Z,56.90
2018-07-11T05:46:47.857Z,56.50
2018-07-11T05:49:19.835Z,56.20
2018-07-11T05:51:51.820Z,56.00
2018-07-11T05:54:23.595Z,56.00
2018-07-11T05:56:55.356Z,55.70
2018-07-11T05:59:26.857Z,55.30
2018-07-11T06:01:59.456Z,55.80
2018-07-11T06:04:30.716Z,54.90
2018-07-11T06:07:03.356Z,54.80
2018-07-11T06:09:34.859Z,55.20
2018-07-11T06:12:07.816Z,55.70
2018-07-11T06:14:40.036Z,56.80
2018-07-11T06:17:12.257Z,56.50
2018-07-11T06:19:44.696Z,57.40
2018-07-11T06:22:16.555Z,56.30
2018-07-11T06:24:48.956Z,56.40
2018-07-11T06:27:21.056Z,56.60
2018-07-11T06:29:53.416Z,56.10
2018-07-11T06:32:26.256Z,56.10
2018-07-11T06:34:58.156Z,55.60
2018-07-11T06:37:30.256Z,55.70
2018-07-11T06:40:03.256Z,54.70
2018-07-11T06:42:35.336Z,55.60
2018-07-11T06:45:07.976Z,55.50
2018-07-11T06:47:39.778Z,55.20
2018-07-11T06:50:12.757Z,54.20
2018-07-11T06:52:45.076Z,53.70
2018-07-11T06:55:17.176Z,52.40
2018-07-11T06:57:48.016Z,53.10
2018-07-11T07:00:20.376Z,53.00
2018-07-11T07:02:52.416Z,53.30
2018-07-11T07:05:24.275Z,52.70
2018-07-11T07:07:57.108Z,52.20
2018-07-11T07:10:29.292Z,51.90
2018-07-11T07:13:01.128Z,52.00
2018-07-11T07:15:33.026Z,52.00
2018-07-11T07:18:04.706Z,51.60
2018-07-11T07:20:36.846Z,51.40
2018-07-11T07:23:08.926Z,51.50
2018-07-11T07:25:40.263Z,51.60
2018-07-11T07:28:11.452Z,51.50
2018-07-11T07:30:42.507Z,52.20
2018-07-11T07:33:14.450Z,51.70
2018-07-11T07:35:47.530Z,52.10
2018-07-11T07:38:20.250Z,51.80
2018-07-11T07:40:52.790Z,52.70
2018-07-11T07:43:24.325Z,52.30
2018-07-11T07:45:55.498Z,51.90
2018-07-11T07:48:27.338Z,52.80
2018-07-11T07:50:59.858Z,53.10
2018-07-11T07:53:32.199Z,52.80
2018-07-11T07:56:04.318Z,52.70
2018-07-11T07:58:36.420Z,52.20
2018-07-11T08:01:08.962Z,52.10
2018-07-11T08:03:40.918Z,51.80
2018-07-11T08:08:43.738Z,52.20
2018-07-11T08:11:15.237Z,52.10
2018-07-11T08:13:47.658Z,51.80
2018-07-11T08:16:19.562Z,51.70
2018-07-11T08:18:51.318Z,51.70
2018-07-11T08:21:22.853Z,52.30
2018-07-11T08:24:03.878Z,51.10
2018-07-11T08:28:47.058Z,51.50
2018-07-11T08:31:59.478Z,51.30
2018-07-11T08:34:55.221Z,51.40
2018-07-11T08:39:38.960Z,51.40
2018-07-11T08:42:21.041Z,51.80
2018-07-11T08:45:27.938Z,51.40
2018-07-11T08:48:43.898Z,51.50
2018-07-11T08:51:32.738Z,51.70
2018-07-11T08:54:36.299Z,51.90
2018-07-11T08:57:20.558Z,51.80
2018-07-11T09:00:01.960Z,51.10
2018-07-11T09:02:44.578Z,51.30
2018-07-11T09:07:29.919Z,50.90
2018-07-11T09:11:08.657Z,51.10
2018-07-11T09:13:51.519Z,50.40
2018-07-11T09:16:36.518Z,51.00
2018-07-11T09:20:17.419Z,50.60
2018-07-11T09:23:16.319Z,50.30
2018-07-11T09:25:49.017Z,50.90
2018-07-11T09:28:21.498Z,50.60
2018-07-11T09:30:53.918Z,50.20
2018-07-11T09:33:26.277Z,49.30
2018-07-11T09:35:58.847Z,49.30
2018-07-11T09:38:31.404Z,48.50
2018-07-11T09:41:03.623Z,48.00
2018-07-11T09:43:35.724Z,46.80
2018-07-11T09:46:09.064Z,46.60
2018-07-11T09:48:40.783Z,46.70
2018-07-11T09:51:13.947Z,46.40
2018-07-11T09:53:45.427Z,45.60
2018-07-11T09:56:18.166Z,45.70
2018-07-11T09:58:50.926Z,45.10
2018-07-11T10:01:25.568Z,43.70
2018-07-11T10:03:57.729Z,44.30
2018-07-11T10:06:30.880Z,45.00
2018-07-11T10:09:04.393Z,44.90
2018-07-11T10:11:36.893Z,44.10
2018-07-11T10:14:08.772Z,44.60
2018-07-11T10:16:42.073Z,44.50
2018-07-11T10:19:13.332Z,44.50
2018-07-11T10:21:46.273Z,44.00
2018-07-11T10:24:19.852Z,43.50
2018-07-11T10:26:51.543Z,43.80
2018-07-11T10:29:24.020Z,43.10
2018-07-11T10:31:56.061Z,47.00
2018-07-11T10:34:27.410Z,43.60
2018-07-11T10:36:59.383Z,42.30
2018-07-11T10:39:31.440Z,41.60
2018-07-11T10:42:03.021Z,41.10
2018-07-11T10:44:35.362Z,42.10
2018-07-11T10:47:10.562Z,41.90
2018-07-11T10:49:43.380Z,40.90
2018-07-11T10:52:15.772Z,41.20
2018-07-11T10:54:47.584Z,41.10
2018-07-11T10:57:20.184Z,41.40
2018-07-11T10:59:51.544Z,41.20
2018-07-11T11:02:24.625Z,41.40
2018-07-11T11:04:56.736Z,41.30
2018-07-11T11:07:29.279Z,41.20
2018-07-11T11:10:01.940Z,41.30
2018-07-11T11:12:34.078Z,41.00
2018-07-11T11:15:05.742Z,40.90
2018-07-11T11:17:38.765Z,41.00
2018-07-11T11:20:10.141Z,41.50
2018-07-11T11:22:41.898Z,41.70
2018-07-11T11:25:13.478Z,41.40
2018-07-11T11:27:46.258Z,41.50
2018-07-11T11:32:48.633Z,41.20
2018-07-11T11:35:20.633Z,40.90
2018-07-11T11:37:51.290Z,40.20
2018-07-11T11:40:22.948Z,40.60
2018-07-11T11:42:54.747Z,39.50
2018-07-11T11:45:26.524Z,39.00
2018-07-11T11:48:00.441Z,38.20
2018-07-11T11:50:32.529Z,37.90
2018-07-11T11:53:04.244Z,37.90
2018-07-11T11:55:35.822Z,37.40
2018-07-11T11:58:08.222Z,36.80
2018-07-11T12:00:39.362Z,37.00
2018-07-11T12:03:11.322Z,37.00
2018-07-11T12:05:42.954Z,37.00
2018-07-11T12:08:14.295Z,36.90
2018-07-11T12:10:46.318Z,37.20
2018-07-11T12:13:19.059Z,36.70
2018-07-11T12:15:50.829Z,35.90
2018-07-11T12:18:24.027Z,36.20
2018-07-11T12:21:00.473Z,36.60
2018-07-11T12:23:31.767Z,36.20
2018-07-11T12:26:09.924Z,35.70
2018-07-11T12:28:41.188Z,35.30
2018-07-11T12:31:13.451Z,34.60
2018-07-11T12:33:45.445Z,35.00
2018-07-11T12:36:18.038Z,35.10
2018-07-11T12:38:52.357Z,34.90
2018-07-11T12:41:24.397Z,34.80
2018-07-11T12:43:57.317Z,35.70
2018-07-11T12:46:29.739Z,34.90
2018-07-11T12:49:04.818Z,34.90
2018-07-11T12:51:37.918Z,35.30
2018-07-11T12:54:09.845Z,35.70
2018-07-11T12:56:43.038Z,35.60
2018-07-11T12:59:16.018Z,35.20
2018-07-11T13:01:48.518Z,34.70
2018-07-11T13:04:20.577Z,34.60
2018-07-11T13:06:53.418Z,34.70
2018-07-11T13:09:25.623Z,35.00
2018-07-11T13:11:57.358Z,34.80
2018-07-11T13:14:29.348Z,33.50
2018-07-11T13:17:00.858Z,34.60
2018-07-11T13:19:32.638Z,34.40
2018-07-11T13:22:04.658Z,34.60
2018-07-11T13:24:37.637Z,34.00
2018-07-11T13:27:09.277Z,34.50
2018-07-11T13:29:42.238Z,34.10
2018-07-11T13:32:14.438Z,33.90
2018-07-11T13:34:46.657Z,33.60
2018-07-11T13:37:18.778Z,33.80
2018-07-11T13:39:50.098Z,33.80
2018-07-11T13:42:22.138Z,33.60
2018-07-11T13:44:53.938Z,33.30
2018-07-11T13:47:27.699Z,32.80
2018-07-11T13:50:00.439Z,33.20
2018-07-11T13:52:32.478Z,32.70
2018-07-11T13:55:05.146Z,32.90
2018-07-11T13:57:38.139Z,33.00
2018-07-11T14:00:09.858Z,32.60
2018-07-11T14:02:41.671Z,31.50
2018-07-11T14:05:13.308Z,31.00
2018-07-11T14:07:45.029Z,31.90
2018-07-11T14:10:16.928Z,32.10
2018-07-11T14:12:49.127Z,31.70
2018-07-11T14:15:21.569Z,31.50
2018-07-11T14:17:53.108Z,30.40
2018-07-11T14:20:25.238Z,30.60
2018-07-11T14:23:01.185Z,31.50
2018-07-11T14:25:33.168Z,30.70
2018-07-11T14:28:05.249Z,30.20
2018-07-11T14:30:38.248Z,31.20
2018-07-11T14:33:11.828Z,31.20
2018-07-11T14:35:44.490Z,32.40
2018-07-11T14:38:16.789Z,31.70
2018-07-11T14:40:48.629Z,31.70
2018-07-11T14:43:21.388Z,31.70
2018-07-11T14:45:54.092Z,31.40
2018-07-11T14:48:26.188Z,32.10
2018-07-11T14:50:59.108Z,30.60
2018-07-11T14:53:31.167Z,31.10
2018-07-11T14:56:03.488Z,31.60
2018-07-11T14:58:35.088Z,31.50
2018-07-11T15:01:07.688Z,32.00
2018-07-11T15:03:40.209Z,31.80
2018-07-11T15:06:12.008Z,31.80
2018-07-11T15:08:44.720Z,31.40
2018-07-11T15:11:16.668Z,30.80
2018-07-11T15:13:49.408Z,31.30
2018-07-11T15:16:20.967Z,31.70
2018-07-11T15:18:53.347Z,31.90
2018-07-11T15:21:25.008Z,32.70
2018-07-11T15:23:57.987Z,32.50
2018-07-11T15:26:29.528Z,32.40
2018-07-11T15:29:01.368Z,33.00
2018-07-11T15:31:33.790Z,33.00
2018-07-11T15:34:06.528Z,33.70
2018-07-11T15:36:38.188Z,33.40
2018-07-11T15:39:10.638Z,33.20
2018-07-11T15:41:41.928Z,33.70
2018-07-11T15:44:14.616Z,34.10
2018-07-11T15:46:46.037Z,34.10
2018-07-11T15:49:18.357Z,34.20
2018-07-11T15:51:50.076Z,32.60
2018-07-11T15:54:23.516Z,33.10
2018-07-11T15:56:56.665Z,33.40
2018-07-11T15:59:30.054Z,33.40
2018-07-11T16:02:01.319Z,33.70
2018-07-11T16:04:39.138Z,33.80
2018-07-11T16:07:11.398Z,33.60
2018-07-11T16:09:52.317Z,33.70
2018-07-11T16:12:25.116Z,33.90
2018-07-11T16:14:58.396Z,34.10
2018-07-11T16:17:30.356Z,34.50
2018-07-11T16:20:02.257Z,34.30
2018-07-11T16:22:35.256Z,34.30
2018-07-11T16:25:07.520Z,34.10
2018-07-11T16:27:39.757Z,34.30
2018-07-11T16:30:12.917Z,34.30
2018-07-11T16:32:44.317Z,34.30
2018-07-11T16:35:17.277Z,33.60
2018-07-11T16:37:48.957Z,33.70
2018-07-11T16:40:21.377Z,34.20
2018-07-11T16:42:54.919Z,34.10
2018-07-11T16:45:27.417Z,34.30
2018-07-11T16:47:59.862Z,34.00
2018-07-11T16:50:32.237Z,34.20
2018-07-11T16:53:04.697Z,34.40
2018-07-11T16:55:36.977Z,35.50
2018-07-11T16:58:09.117Z,35.70
2018-07-11T17:00:42.174Z,35.10
2018-07-11T17:03:16.018Z,34.30
2018-07-11T17:05:55.398Z,34.40
2018-07-11T17:08:32.476Z,34.80
2018-07-11T17:11:19.836Z,34.40
2018-07-11T17:13:56.956Z,34.60
2018-07-11T17:16:37.597Z,33.90
2018-07-11T17:19:15.357Z,34.20
2018-07-11T17:21:50.376Z,34.20
2018-07-11T17:24:23.196Z,34.40
2018-07-11T17:26:57.836Z,34.60
2018-07-11T17:29:32.117Z,34.60
2018-07-11T17:32:10.716Z,34.50
2018-07-11T17:34:43.717Z,34.90
2018-07-11T17:37:16.017Z,35.80
2018-07-11T17:40:09.016Z,35.40
2018-07-11T17:42:42.036Z,35.10
2018-07-11T17:45:19.197Z,35.10
2018-07-11T17:50:01.037Z,35.60
2018-07-11T17:52:36.198Z,35.60
2018-07-11T17:55:10.638Z,35.70
2018-07-11T17:58:12.467Z,35.80
2018-07-11T18:00:55.357Z,36.10
2018-07-11T18:03:35.317Z,35.80
2018-07-11T18:06:43.197Z,36.20
2018-07-11T18:09:15.997Z,36.30
2018-07-11T18:11:55.677Z,36.30
2018-07-11T18:14:40.377Z,35.90
2018-07-11T18:18:26.078Z,35.70
2018-07-11T18:22:07.359Z,35.90
2018-07-11T18:26:59.718Z,36.20
2018-07-11T18:29:40.772Z,36.50
2018-07-11T18:34:31.398Z,36.90
2018-07-11T18:37:10.337Z,37.20
2018-07-11T18:40:21.098Z,37.20
2018-07-11T18:43:01.218Z,37.10
2018-07-11T18:45:40.538Z,37.30
2018-07-11T18:57:58.280Z,37.40
2018-07-11T19:01:09.458Z,37.60
2018-07-11T19:05:57.595Z,42.20
2018-07-11T19:08:43.358Z,43.60
2018-07-11T19:11:25.238Z,43.20
2018-07-11T19:14:08.918Z,42.90
2018-07-11T19:16:51.358Z,43.00
2018-07-11T19:19:34.246Z,42.90
2018-07-11T19:22:13.679Z,43.00
2018-07-11T19:24:54.237Z,43.20
2018-07-11T19:27:39.797Z,44.10
2018-07-11T19:30:19.058Z,43.80
2018-07-11T19:33:03.381Z,44.10
2018-07-11T19:35:44.678Z,44.00
2018-07-11T19:38:30.498Z,44.00
2018-07-11T19:41:17.179Z,43.70
2018-07-11T19:44:04.477Z,44.20
2018-07-11T19:47:54.278Z,44.30
2018-07-11T19:50:39.878Z,44.20
2018-07-11T19:54:18.919Z,44.50
2018-07-11T19:56:53.098Z,44.50
2018-07-11T19:59:25.598Z,44.60
2018-07-11T20:01:58.080Z,44.80
2018-07-11T20:04:30.699Z,45.20
2018-07-11T20:07:03.058Z,45.60
2018-07-11T20:09:36.038Z,45.40
2018-07-11T20:12:07.258Z,45.60
2018-07-11T20:14:39.419Z,45.70
2018-07-11T20:17:11.508Z,45.80
2018-07-11T20:19:43.928Z,45.60
2018-07-11T20:22:16.629Z,45.80
2018-07-11T20:24:48.808Z,45.60
2018-07-11T20:27:20.648Z,45.60
2018-07-11T20:29:52.788Z,45.70
2018-07-11T20:32:24.668Z,46.00
2018-07-11T20:34:56.548Z,46.40
2018-07-11T20:37:28.888Z,46.80
2018-07-11T20:40:02.388Z,46.90
2018-07-11T20:42:34.688Z,46.80
2018-07-11T20:45:06.908Z,47.20
2018-07-11T20:47:39.428Z,47.50
2018-07-11T20:50:11.929Z,47.10
2018-07-11T20:52:43.688Z,47.30
2018-07-11T20:55:16.288Z,46.80
2018-07-11T20:57:48.251Z,46.70
2018-07-11T21:00:29.509Z,46.60
2018-07-11T21:03:10.868Z,46.50
2018-07-11T21:05:54.748Z,46.40
2018-07-11T21:09:38.247Z,46.40
2018-07-11T21:12:51.827Z,46.30
2018-07-11T21:15:59.568Z,46.30
2018-07-11T21:19:07.687Z,46.40
2018-07-11T21:21:41.309Z,46.50
2018-07-11T21:24:14.408Z,46.30
2018-07-11T21:26:47.147Z,46.60
2018-07-11T21:29:19.049Z,46.30
2018-07-11T21:31:51.468Z,46.20
2018-07-11T21:34:22.867Z,46.40
2018-07-11T21:36:55.667Z,46.40
2018-07-11T21:39:28.388Z,46.60
2018-07-11T21:42:00.148Z,46.70
2018-07-11T21:44:33.068Z,47.00
2018-07-11T21:47:05.008Z,47.00
2018-07-11T21:49:36.627Z,47.00
2018-07-11T21:52:09.507Z,47.20
2018-07-11T21:54:41.888Z,47.30
2018-07-11T21:57:13.747Z,47.10
2018-07-11T21:59:46.387Z,47.30
2018-07-11T22:02:18.847Z,47.90
2018-07-11T22:04:50.227Z,48.00
2018-07-11T22:07:21.448Z,48.20
2018-07-11T22:09:53.630Z,48.20
2018-07-11T22:12:25.328Z,47.80
2018-07-11T22:14:57.288Z,47.70
2018-07-11T22:19:36.688Z,47.70
2018-07-11T22:22:06.448Z,47.60
2018-07-11T22:24:35.228Z,47.70
2018-07-11T22:27:04.688Z,47.70
2018-07-11T22:29:33.707Z,47.70
2018-07-11T22:32:03.208Z,47.70
2018-07-11T22:34:33.007Z,47.70
2018-07-11T22:37:02.468Z,47.80
2018-07-11T22:39:32.467Z,47.70
2018-07-11T22:42:01.568Z,47.90
2018-07-11T22:44:30.807Z,47.90
2018-07-11T22:47:00.727Z,47.80
2018-07-11T22:49:30.747Z,47.90
2018-07-11T22:52:00.107Z,48.10
2018-07-11T22:54:30.367Z,48.40
2018-07-11T22:56:59.907Z,48.10
2018-07-11T22:59:30.269Z,48.10
2018-07-11T23:01:59.807Z,47.90
2018-07-11T23:04:28.907Z,47.80
2018-07-11T23:06:59.027Z,47.70
2018-07-11T23:09:28.371Z,47.50
2018-07-11T23:11:57.849Z,47.50
2018-07-11T23:14:27.347Z,47.30
2018-07-11T23:16:56.348Z,47.60
2018-07-11T23:19:25.988Z,48.30
2018-07-11T23:21:54.847Z,48.00
2018-07-11T23:24:25.162Z,48.20
2018-07-11T23:26:54.468Z,48.30
2018-07-11T23:29:24.188Z,48.20
2018-07-11T23:31:53.368Z,48.30
2018-07-11T23:34:22.488Z,48.20
2018-07-11T23:36:51.887Z,48.10
2018-07-11T23:39:21.648Z,48.10
2018-07-11T23:41:50.888Z,48.10
2018-07-11T23:44:20.631Z,48.00
2018-07-11T23:46:49.808Z,48.20
2018-07-11T23:49:19.055Z,48.30
2018-07-11T23:51:48.208Z,48.60
2018-07-11T23:54:17.409Z,48.70
2018-07-11T23:56:46.707Z,49.00
2018-07-11T23:59:16.127Z,49.20
